»·PEaware :: N7274H KSNA-KSNA

N7274H :: KSNA-KSNA

FLIGHT INFORMATION

Flight Status: Arrived
Operator: Privately registered:
United States
More flights under this callsign
Pilot: Thiago S. (19132)
Aircraft: CESSNA 172 SKYHAWK
(C172)
More flights by this aircraft type
Origin: KSNA John Wayne-Orange Co
United States
Destination: KSNA John Wayne-Orange Co
United States
More flights between these airports :: More routes between these airports
Route: SLI
File this flight plan on PilotEdge
Remarks: I RATING 1
Altitude:
(Current/Filed)
3,000ft
Speed:
(Current/Filed)
100kts
Departed: 15-Feb-19 11:53 AM
Arrived: 15-Feb-19 12:23 PM
Distance/Time
Traveled:
0nm/0:30
Distance/Time
To Go:
Arrived

Flight Plot

Page will automatically refresh every two minutes.


Map Options




Map Legend


Flown Route
Filed Route
Departure Airport
Arrival Airport
Navaid (VOR, NDB)
Fix

Horizontal Profiles

Position Reports

Time Latitude Longitude Heading Altitude Ground
Speed
15-Feb-19 11:37 33.667965 -117.871477 27 59ft 0kts
15-Feb-19 11:38 33.667968 -117.871475 27 59ft 0kts
15-Feb-19 11:40 33.667972 -117.871472 27 59ft 0kts
15-Feb-19 11:40 33.667975 -117.871471 27 59ft 0kts
15-Feb-19 11:41 33.667978 -117.871469 27 59ft 0kts
15-Feb-19 11:42 33.667981 -117.871467 27 59ft 0kts
15-Feb-19 11:43 33.667984 -117.871465 27 59ft 0kts
15-Feb-19 11:44 33.667987 -117.871463 27 59ft 0kts
15-Feb-19 11:45 33.667989 -117.871461 27 59ft 0kts
15-Feb-19 11:46 33.667997 -117.871456 27 59ft 1kts
15-Feb-19 11:47 33.670552 -117.869855 38 59ft 14kts
15-Feb-19 11:48 33.673481 -117.866632 358 59ft 5kts
15-Feb-19 11:49 33.675411 -117.866222 26 59ft 15kts
15-Feb-19 11:50 33.679692 -117.863755 318 59ft 0kts
15-Feb-19 11:51 33.679693 -117.863756 318 59ft 0kts
15-Feb-19 11:52 33.678758 -117.865037 208 59ft 43kts
15-Feb-19 11:53 33.658974 -117.877049 211 727ft 91kts
15-Feb-19 11:54 33.639938 -117.900225 231 1238ft 107kts
15-Feb-19 11:55 33.620633 -117.928940 233 1655ft 111kts
15-Feb-19 11:56 33.601587 -117.958134 232 2033ft 116kts
15-Feb-19 11:57 33.581804 -117.986412 230 2035ft 107kts
15-Feb-19 11:58 33.563084 -118.012862 230 2249ft 96kts
15-Feb-19 11:59 33.545739 -118.036980 231 2750ft 94kts
15-Feb-19 12:00 33.560288 -118.044838 31 3028ft 108kts
15-Feb-19 12:01 33.585224 -118.024841 31 3034ft 108kts
15-Feb-19 12:02 33.610227 -118.004756 31 3034ft 108kts
15-Feb-19 12:03 33.635267 -117.984872 31 3034ft 107kts
15-Feb-19 12:04 33.660288 -117.965130 31 3032ft 107kts
15-Feb-19 12:05 33.685320 -117.945373 31 3032ft 107kts
15-Feb-19 12:06 33.710308 -117.925639 31 3035ft 107kts
15-Feb-19 12:07 33.735373 -117.905837 31 3008ft 110kts
15-Feb-19 12:08 33.760227 -117.886418 32 3027ft 108kts
15-Feb-19 12:09 33.785221 -117.866606 31 3013ft 108kts
15-Feb-19 12:10 33.810173 -117.846862 31 3030ft 107kts
15-Feb-19 12:11 33.835194 -117.827060 31 3028ft 107kts
15-Feb-19 12:12 33.860201 -117.807264 31 3030ft 107kts
15-Feb-19 12:13 33.884348 -117.786229 62 2995ft 111kts
15-Feb-19 12:14 33.879088 -117.752787 157 3035ft 105kts
15-Feb-19 12:15 33.849746 -117.751462 186 3027ft 106kts
15-Feb-19 12:16 33.828361 -117.772369 202 3047ft 108kts
15-Feb-19 12:17 33.802545 -117.788387 211 2985ft 106kts
15-Feb-19 12:18 33.775093 -117.806064 206 2417ft 116kts
15-Feb-19 12:19 33.746152 -117.824406 209 1584ft 114kts
15-Feb-19 12:20 33.719359 -117.841129 209 1032ft 108kts
15-Feb-19 12:21 33.694299 -117.857023 208 430ft 91kts
15-Feb-19 12:22 33.676228 -117.868473 208 59ft 39kts
15-Feb-19 12:23 33.671872 -117.871839 274 59ft 3kts
15-Feb-19 12:24 33.672104 -117.872629 17 59ft 6kts
15-Feb-19 12:25 33.675174 -117.870826 25 59ft 7kts
15-Feb-19 12:26 33.676899 -117.870287 295 59ft 5kts
15-Feb-19 12:27 33.677049 -117.870661 119 59ft 0kts
15-Feb-19 12:28 33.677049 -117.870661 119 59ft 0kts
15-Feb-19 12:29 33.677049 -117.870661 119 59ft 0kts

Navigation Log

Ident Type
Flight plan parsing failed, navigation log unavailable